createdAt,value
2019-01-25T00:00:06.420Z,64.90
2019-01-25T00:02:33.472Z,56.27
2019-01-25T00:05:00.552Z,60.23
2019-01-25T00:07:27.636Z,62.13
2019-01-25T00:09:58.596Z,64.10
2019-01-25T00:12:23.822Z,59.73
2019-01-25T00:14:50.897Z,62.33
2019-01-25T00:17:17.976Z,59.33
2019-01-25T00:19:45.193Z,56.23
2019-01-25T00:22:12.284Z,63.20
2019-01-25T00:24:41.365Z,66.63
2019-01-25T00:27:08.468Z,65.93
2019-01-25T00:29:35.540Z,64.03
2019-01-25T00:32:02.727Z,59.20
2019-01-25T00:34:29.915Z,58.07
2019-01-25T00:36:56.953Z,59.60
2019-01-25T00:39:24.028Z,62.30
2019-01-25T00:41:51.119Z,62.67
2019-01-25T00:44:18.185Z,62.63
2019-01-25T00:46:45.253Z,60.93
2019-01-25T00:49:12.456Z,64.00
2019-01-25T00:51:39.525Z,61.87
2019-01-25T00:54:06.596Z,65.60
2019-01-25T00:56:33.735Z,62.73
2019-01-25T00:59:00.795Z,57.33
2019-01-25T01:01:27.951Z,67.43
2019-01-25T01:03:55.081Z,65.10
2019-01-25T01:06:40.354Z,64.50
2019-01-25T01:09:09.109Z,62.97
2019-01-25T01:11:36.159Z,62.43
2019-01-25T01:14:03.543Z,64.00
2019-01-25T01:16:30.628Z,69.07
2019-01-25T01:18:57.702Z,68.23
2019-01-25T01:21:24.879Z,68.33
2019-01-25T01:23:52.081Z,68.40
2019-01-25T01:26:19.129Z,75.03
2019-01-25T01:28:46.212Z,72.17
2019-01-25T01:31:13.317Z,76.50
2019-01-25T01:33:40.589Z,76.70
2019-01-25T01:36:07.651Z,75.53
2019-01-25T01:38:34.840Z,77.27
2019-01-25T01:41:01.979Z,77.90
2019-01-25T01:43:29.046Z,73.43
2019-01-25T01:45:56.108Z,73.13
2019-01-25T01:48:23.200Z,75.67
2019-01-25T01:50:50.262Z,73.47
2019-01-25T01:53:17.319Z,75.43
2019-01-25T01:55:44.435Z,64.00
2019-01-25T01:58:11.490Z,67.30
2019-01-25T02:00:38.578Z,71.83
2019-01-25T02:03:06.805Z,69.47
2019-01-25T02:05:33.858Z,70.43
2019-01-25T02:08:00.916Z,71.10
2019-01-25T02:10:29.678Z,72.53
2019-01-25T02:12:57.228Z,69.77
2019-01-25T02:15:24.897Z,72.77
2019-01-25T02:17:52.853Z,68.77
2019-01-25T02:20:24.971Z,74.47
2019-01-25T02:22:52.043Z,68.43
2019-01-25T02:25:19.092Z,69.53
2019-01-25T02:27:46.409Z,69.27
2019-01-25T02:30:18.115Z,67.00
2019-01-25T02:32:45.188Z,68.33
2019-01-25T02:35:12.290Z,69.37
2019-01-25T02:37:39.464Z,67.17
2019-01-25T02:40:07.792Z,69.40
2019-01-25T02:42:34.898Z,68.37
2019-01-25T02:45:02.006Z,67.87
2019-01-25T02:47:29.053Z,69.47
2019-01-25T02:49:56.126Z,65.23
2019-01-25T02:52:23.216Z,70.10
2019-01-25T02:54:50.302Z,66.70
2019-01-25T02:57:17.373Z,67.00
2019-01-25T02:59:44.516Z,61.17
2019-01-25T03:02:11.654Z,65.00
2019-01-25T03:04:38.712Z,64.23
2019-01-25T03:07:05.801Z,63.70
2019-01-25T03:09:52.416Z,63.63
2019-01-25T03:12:19.511Z,63.20
2019-01-25T03:14:46.624Z,64.37
2019-01-25T03:17:13.734Z,57.53
2019-01-25T03:19:40.892Z,59.37
2019-01-25T03:22:07.964Z,60.87
2019-01-25T03:24:35.049Z,57.77
2019-01-25T03:27:02.153Z,58.97
2019-01-25T03:29:29.219Z,62.40
2019-01-25T03:31:56.289Z,61.27
2019-01-25T03:34:23.440Z,60.07
2019-01-25T03:36:50.497Z,59.20
2019-01-25T03:39:17.556Z,56.40
2019-01-25T03:41:44.648Z,56.73
2019-01-25T03:44:13.787Z,55.33
2019-01-25T03:46:40.838Z,59.20
2019-01-25T03:49:07.935Z,57.57
2019-01-25T03:51:36.795Z,64.37
2019-01-25T03:54:04.213Z,54.57
2019-01-25T03:56:31.295Z,59.87
2019-01-25T03:58:58.357Z,57.63
2019-01-25T04:01:25.407Z,60.10
2019-01-25T04:03:52.538Z,59.43
2019-01-25T04:06:19.598Z,57.20
2019-01-25T04:08:46.702Z,57.07
2019-01-25T04:11:13.788Z,56.20
2019-01-25T04:13:40.889Z,60.93
2019-01-25T04:16:11.945Z,58.13
2019-01-25T04:18:39.027Z,58.73
2019-01-25T04:21:21.155Z,61.57
2019-01-25T04:23:48.229Z,56.97
2019-01-25T04:26:15.307Z,60.70
2019-01-25T04:28:42.486Z,59.10
2019-01-25T04:31:09.571Z,58.13
2019-01-25T04:33:36.687Z,51.37
2019-01-25T04:36:04.183Z,58.40
2019-01-25T04:38:31.277Z,56.67
2019-01-25T04:40:58.450Z,62.50
2019-01-25T04:43:25.819Z,61.13
2019-01-25T04:45:53.019Z,57.30
2019-01-25T04:49:17.369Z,59.10
2019-01-25T04:51:44.451Z,57.07
2019-01-25T04:54:11.567Z,57.27
2019-01-25T04:56:38.868Z,58.23
2019-01-25T04:59:06.008Z,56.50
2019-01-25T05:01:33.115Z,57.50
2019-01-25T05:04:00.164Z,55.80
2019-01-25T05:06:27.225Z,59.30
2019-01-25T05:08:54.445Z,56.30
2019-01-25T05:11:21.513Z,58.87
2019-01-25T05:13:48.559Z,58.97
2019-01-25T05:16:15.746Z,60.57
2019-01-25T05:18:43.434Z,60.73
2019-01-25T05:21:25.216Z,59.67
2019-01-25T05:23:52.396Z,59.17
2019-01-25T05:26:19.418Z,58.87
2019-01-25T05:28:46.490Z,55.67
2019-01-25T05:31:14.492Z,63.10
2019-01-25T05:33:49.724Z,61.57
2019-01-25T05:36:16.850Z,57.00
2019-01-25T05:38:46.945Z,60.80
2019-01-25T05:41:14.006Z,60.47
2019-01-25T05:43:42.182Z,58.40
2019-01-25T05:46:09.332Z,58.00
2019-01-25T05:48:36.390Z,60.90
2019-01-25T05:51:05.276Z,61.80
2019-01-25T05:53:32.355Z,64.30
2019-01-25T05:55:59.502Z,60.13
2019-01-25T05:58:26.652Z,61.53
2019-01-25T06:00:53.704Z,59.30
2019-01-25T06:03:20.805Z,57.47
2019-01-25T06:05:47.891Z,61.77
2019-01-25T06:08:29.341Z,62.63
2019-01-25T06:10:57.716Z,61.13
2019-01-25T06:13:24.863Z,58.13
2019-01-25T06:15:51.928Z,60.57
2019-01-25T06:18:19.034Z,61.83
2019-01-25T06:20:50.741Z,61.83
2019-01-25T06:23:17.772Z,62.03
2019-01-25T06:25:50.337Z,62.23
2019-01-25T06:28:17.412Z,61.70
2019-01-25T06:30:45.888Z,64.10
2019-01-25T06:33:12.974Z,65.20
2019-01-25T06:35:41.863Z,63.30
2019-01-25T06:38:08.932Z,61.50
2019-01-25T06:40:36.036Z,61.10
2019-01-25T06:43:03.316Z,60.53
2019-01-25T06:45:30.437Z,63.77
2019-01-25T06:47:57.537Z,65.20
2019-01-25T06:50:24.712Z,61.53
2019-01-25T06:52:51.746Z,60.33
2019-01-25T06:55:18.942Z,60.00
2019-01-25T06:57:55.166Z,58.60
2019-01-25T07:00:24.524Z,56.87
2019-01-25T07:02:51.590Z,63.50
2019-01-25T07:05:18.635Z,61.53
2019-01-25T07:07:46.195Z,62.00
2019-01-25T07:10:15.888Z,62.57
2019-01-25T07:12:42.912Z,62.23
2019-01-25T07:15:10.341Z,61.20
2019-01-25T07:17:37.411Z,63.90
2019-01-25T07:20:06.871Z,61.40
2019-01-25T07:22:33.935Z,56.80
2019-01-25T07:25:01.090Z,61.63
2019-01-25T07:27:28.206Z,68.77
2019-01-25T07:29:55.296Z,63.80
2019-01-25T07:32:22.473Z,62.10
2019-01-25T07:34:49.606Z,63.73
2019-01-25T07:37:29.321Z,62.57
2019-01-25T07:39:56.634Z,58.70
2019-01-25T07:42:23.820Z,63.43
2019-01-25T07:44:50.866Z,65.93
2019-01-25T07:47:17.934Z,62.50
2019-01-25T07:49:45.020Z,65.33
2019-01-25T07:52:13.909Z,63.43
2019-01-25T07:54:40.966Z,66.70
2019-01-25T07:57:09.060Z,64.00
2019-01-25T07:59:36.093Z,63.53
2019-01-25T08:02:03.137Z,67.10
2019-01-25T08:04:30.210Z,60.93
2019-01-25T08:06:57.238Z,62.77
2019-01-25T08:09:24.339Z,62.40
2019-01-25T08:11:51.469Z,65.07
2019-01-25T08:14:18.495Z,62.77
2019-01-25T08:16:45.550Z,63.33
2019-01-25T08:19:12.778Z,66.70
2019-01-25T08:21:39.937Z,59.77
2019-01-25T08:24:06.982Z,66.10
2019-01-25T08:26:34.078Z,63.33
2019-01-25T08:29:01.113Z,63.00
2019-01-25T08:31:28.174Z,63.60
2019-01-25T08:33:55.299Z,65.00
2019-01-25T08:36:22.466Z,60.70
2019-01-25T08:38:51.349Z,63.33
2019-01-25T08:41:18.426Z,61.70
2019-01-25T08:43:45.585Z,61.60
2019-01-25T08:46:12.578Z,64.03
2019-01-25T08:48:39.702Z,65.83
2019-01-25T08:51:08.204Z,64.17
2019-01-25T08:53:35.303Z,68.63
2019-01-25T08:56:02.369Z,62.70
2019-01-25T08:58:29.433Z,64.67
2019-01-25T09:00:56.498Z,60.33
2019-01-25T09:03:23.583Z,63.70
2019-01-25T09:05:50.676Z,64.23
2019-01-25T09:08:17.726Z,64.30
2019-01-25T09:10:44.810Z,63.07
2019-01-25T09:13:11.932Z,62.93
2019-01-25T09:15:38.956Z,67.57
2019-01-25T09:18:06.938Z,63.57
2019-01-25T09:20:35.468Z,67.73
2019-01-25T09:23:02.507Z,65.77
2019-01-25T09:25:29.520Z,72.33
2019-01-25T09:27:56.612Z,65.10
2019-01-25T09:30:23.654Z,65.90
2019-01-25T09:32:50.678Z,65.47
2019-01-25T09:35:18.008Z,65.53
2019-01-25T09:37:45.292Z,64.93
2019-01-25T09:40:15.538Z,57.07
2019-01-25T09:43:28.965Z,59.33
2019-01-25T09:45:56.127Z,54.83
2019-01-25T09:48:23.178Z,58.63
2019-01-25T09:50:52.903Z,50.47
2019-01-25T09:53:19.358Z,51.77
2019-01-25T09:55:46.406Z,48.23
2019-01-25T09:58:15.328Z,45.57
2019-01-25T10:00:49.386Z,42.47
2019-01-25T10:03:16.417Z,41.43
2019-01-25T10:05:43.668Z,43.30
2019-01-25T10:08:10.692Z,43.77
2019-01-25T10:10:37.834Z,42.50
2019-01-25T10:13:04.917Z,45.97
2019-01-25T10:15:32.171Z,46.13
2019-01-25T10:17:59.218Z,41.53
2019-01-25T10:20:26.373Z,39.60
2019-01-25T10:22:53.475Z,32.50
2019-01-25T10:25:20.542Z,31.53
2019-01-25T10:27:47.735Z,28.30
2019-01-25T10:30:17.575Z,26.17
2019-01-25T10:32:44.640Z,28.87
2019-01-25T10:35:11.786Z,31.13
2019-01-25T10:37:39.067Z,28.13
2019-01-25T10:40:09.229Z,30.13
2019-01-25T10:42:36.328Z,28.90
2019-01-25T10:45:05.433Z,27.43
2019-01-25T10:47:32.505Z,28.70
2019-01-25T10:49:59.601Z,27.97
2019-01-25T10:52:26.633Z,28.57
2019-01-25T10:54:53.736Z,27.70
2019-01-25T10:57:20.782Z,29.33
2019-01-25T10:59:47.853Z,29.83
2019-01-25T11:02:14.883Z,29.10
2019-01-25T11:04:41.994Z,28.13
2019-01-25T11:07:10.081Z,29.47
2019-01-25T11:09:38.299Z,32.37
2019-01-25T11:12:05.372Z,29.37
2019-01-25T11:14:33.547Z,30.00
2019-01-25T11:17:00.609Z,30.10
2019-01-25T11:19:27.658Z,28.70
2019-01-25T11:21:54.722Z,29.10
2019-01-25T11:24:21.777Z,31.23
2019-01-25T11:26:48.813Z,31.13
2019-01-25T11:29:15.912Z,29.73
2019-01-25T11:31:42.961Z,28.43
2019-01-25T11:34:10.093Z,31.30
2019-01-25T11:36:37.170Z,26.13
2019-01-25T11:39:08.157Z,29.73
2019-01-25T11:41:35.223Z,27.07
2019-01-25T11:44:02.409Z,26.37
2019-01-25T11:46:29.517Z,27.33
2019-01-25T11:48:56.636Z,23.13
2019-01-25T11:51:23.708Z,25.60
2019-01-25T11:53:50.798Z,27.90
2019-01-25T11:56:17.839Z,26.57
2019-01-25T11:58:44.920Z,25.33
2019-01-25T12:01:12.003Z,26.40
2019-01-25T12:03:39.153Z,28.13
2019-01-25T12:06:06.191Z,27.40
2019-01-25T12:08:33.292Z,28.57
2019-01-25T12:11:00.386Z,27.27
2019-01-25T12:13:27.433Z,28.30
2019-01-25T12:15:54.493Z,26.20
2019-01-25T12:18:21.624Z,25.33
2019-01-25T12:20:48.732Z,26.70
2019-01-25T12:23:15.811Z,25.47
2019-01-25T12:25:42.862Z,27.03
2019-01-25T12:28:09.921Z,26.10
2019-01-25T12:30:38.456Z,26.43
2019-01-25T12:33:06.628Z,25.20
2019-01-25T12:35:38.972Z,24.97
2019-01-25T12:38:06.080Z,27.50
2019-01-25T12:40:33.581Z,24.53
2019-01-25T12:43:00.664Z,26.90
2019-01-25T12:45:27.963Z,27.00
2019-01-25T12:47:55.208Z,26.17
2019-01-25T12:50:25.110Z,25.57
2019-01-25T12:52:52.381Z,27.40
2019-01-25T12:55:21.226Z,27.43
2019-01-25T12:57:48.401Z,26.13
2019-01-25T13:00:17.131Z,25.53
2019-01-25T13:02:44.312Z,26.63
2019-01-25T13:05:15.214Z,26.93
2019-01-25T13:07:42.271Z,26.00
2019-01-25T13:10:17.461Z,23.70
2019-01-25T13:12:44.670Z,25.53
2019-01-25T13:15:26.868Z,24.07
2019-01-25T13:17:53.946Z,24.10
2019-01-25T13:20:25.561Z,24.10
2019-01-25T13:22:52.756Z,25.40
2019-01-25T13:25:19.987Z,25.20
2019-01-25T13:27:47.132Z,24.30
2019-01-25T13:30:19.775Z,23.40
2019-01-25T13:32:47.152Z,22.83
2019-01-25T13:35:14.631Z,23.07
2019-01-25T13:37:41.842Z,23.33
2019-01-25T13:40:11.750Z,24.10
2019-01-25T13:42:38.842Z,23.27
2019-01-25T13:45:07.072Z,24.03
2019-01-25T13:47:34.229Z,24.17
2019-01-25T13:50:01.323Z,23.47
2019-01-25T13:52:28.400Z,26.17
2019-01-25T13:54:55.578Z,23.23
2019-01-25T13:57:22.851Z,22.30
2019-01-25T13:59:49.919Z,24.47
2019-01-25T14:02:16.991Z,23.90
2019-01-25T14:04:45.763Z,24.33
2019-01-25T14:07:12.918Z,24.97
2019-01-25T14:09:39.972Z,24.10
2019-01-25T14:12:08.641Z,24.53
2019-01-25T14:14:36.948Z,26.03
2019-01-25T14:17:04.121Z,23.93
2019-01-25T14:19:31.320Z,24.73
2019-01-25T14:21:58.403Z,23.90
2019-01-25T14:24:25.476Z,24.43
2019-01-25T14:26:52.572Z,23.97
2019-01-25T14:29:19.617Z,24.50
2019-01-25T14:31:46.704Z,21.83
2019-01-25T14:34:13.833Z,25.73
2019-01-25T14:36:40.892Z,24.70
2019-01-25T14:39:08.143Z,22.83
2019-01-25T14:41:35.244Z,23.27
2019-01-25T14:44:02.338Z,25.43
2019-01-25T14:46:29.412Z,24.57
2019-01-25T14:48:56.516Z,26.17
2019-01-25T14:51:23.623Z,24.23
2019-01-25T14:53:51.155Z,24.60
2019-01-25T14:56:18.370Z,25.27
2019-01-25T14:58:45.506Z,23.63
2019-01-25T15:01:12.658Z,26.17
2019-01-25T15:03:39.894Z,26.27
2019-01-25T15:06:06.948Z,26.20
2019-01-25T15:08:34.087Z,25.80
2019-01-25T15:11:01.176Z,24.93
2019-01-25T15:13:28.251Z,27.07
2019-01-25T15:15:55.325Z,25.47
2019-01-25T15:18:22.440Z,26.40
2019-01-25T15:20:49.498Z,28.00
2019-01-25T15:23:16.553Z,28.77
2019-01-25T15:25:43.791Z,29.93
2019-01-25T15:28:10.909Z,27.83
2019-01-25T15:30:38.274Z,30.00
2019-01-25T15:33:05.528Z,32.40
2019-01-25T15:35:34.410Z,32.47
2019-01-25T15:38:01.646Z,32.87
2019-01-25T15:40:29.165Z,33.03
2019-01-25T15:42:56.260Z,33.90
2019-01-25T15:45:23.322Z,32.60
2019-01-25T15:47:50.791Z,32.43
2019-01-25T15:50:20.217Z,34.93
2019-01-25T15:52:47.344Z,35.87
2019-01-25T15:55:15.784Z,38.63
2019-01-25T15:57:42.917Z,37.80
2019-01-25T16:00:13.638Z,38.43
2019-01-25T16:02:40.899Z,40.83
2019-01-25T16:05:09.965Z,40.20
2019-01-25T16:07:37.176Z,41.07
2019-01-25T16:10:06.120Z,41.80
2019-01-25T16:12:33.304Z,42.33
2019-01-25T16:15:00.375Z,42.23
2019-01-25T16:17:27.656Z,38.87
2019-01-25T16:19:54.732Z,39.50
2019-01-25T16:22:21.922Z,41.03
2019-01-25T16:24:48.993Z,39.50
2019-01-25T16:27:16.046Z,39.67
2019-01-25T16:29:43.114Z,41.00
2019-01-25T16:32:10.397Z,39.43
2019-01-25T16:34:37.468Z,41.40
2019-01-25T16:37:04.537Z,40.40
2019-01-25T16:39:31.631Z,40.80
2019-01-25T16:41:58.700Z,43.33
2019-01-25T16:44:25.980Z,39.47
2019-01-25T16:46:53.014Z,36.50
2019-01-25T16:49:20.156Z,40.23
2019-01-25T16:51:47.290Z,39.93
2019-01-25T16:54:14.383Z,40.13
2019-01-25T16:56:41.438Z,39.83
2019-01-25T16:59:08.495Z,40.07
2019-01-25T17:01:35.702Z,42.87
2019-01-25T17:04:02.892Z,40.43
2019-01-25T17:06:29.972Z,40.37
2019-01-25T17:08:57.089Z,42.43
2019-01-25T17:11:24.201Z,40.87
2019-01-25T17:13:51.248Z,37.90
2019-01-25T17:16:18.639Z,42.10
2019-01-25T17:18:45.762Z,43.03
2019-01-25T17:21:12.833Z,35.17
2019-01-25T17:23:40.026Z,37.47
2019-01-25T17:26:07.226Z,38.80
2019-01-25T17:28:34.843Z,37.20
2019-01-25T17:31:01.947Z,36.13
2019-01-25T17:33:29.049Z,36.63
2019-01-25T17:35:59.179Z,36.93
2019-01-25T17:38:26.348Z,35.33
2019-01-25T17:40:53.550Z,33.83
2019-01-25T17:43:20.579Z,36.07
2019-01-25T17:45:47.695Z,36.87
2019-01-25T17:48:14.795Z,38.77
2019-01-25T17:50:41.852Z,35.07
2019-01-25T17:53:08.934Z,38.23
2019-01-25T17:55:35.968Z,38.70
2019-01-25T17:58:08.070Z,38.17
2019-01-25T18:00:48.675Z,38.90
2019-01-25T18:03:15.771Z,33.73
2019-01-25T18:05:43.014Z,37.57
2019-01-25T18:08:10.069Z,35.17
2019-01-25T18:10:37.194Z,37.17
2019-01-25T18:13:04.233Z,36.20
2019-01-25T18:15:31.278Z,34.97
2019-01-25T18:17:58.361Z,37.40
2019-01-25T18:20:25.441Z,37.07
2019-01-25T18:22:54.494Z,37.07
2019-01-25T18:25:25.717Z,38.23
2019-01-25T18:27:56.866Z,38.70
2019-01-25T18:30:28.315Z,34.77
2019-01-25T18:32:55.369Z,35.83
2019-01-25T18:35:22.410Z,37.60
2019-01-25T18:37:49.482Z,39.80
2019-01-25T18:40:16.704Z,37.97
2019-01-25T18:42:43.865Z,35.50
2019-01-25T18:45:10.965Z,33.97
2019-01-25T18:47:39.231Z,33.93
2019-01-25T18:50:08.757Z,34.47
2019-01-25T18:52:35.914Z,35.87
2019-01-25T18:55:05.317Z,36.40
2019-01-25T18:57:32.377Z,37.20
2019-01-25T18:59:59.912Z,36.80
2019-01-25T19:02:27.056Z,35.30
2019-01-25T19:04:54.201Z,36.93
2019-01-25T19:07:21.353Z,33.73
2019-01-25T19:09:48.431Z,33.53
2019-01-25T19:12:15.560Z,33.37
2019-01-25T19:14:43.909Z,35.33
2019-01-25T19:17:11.092Z,34.73
2019-01-25T19:19:39.238Z,34.43
2019-01-25T19:22:06.357Z,32.00
2019-01-25T19:24:33.687Z,34.47
2019-01-25T19:27:00.722Z,32.90
2019-01-25T19:29:27.916Z,34.57
2019-01-25T19:31:54.974Z,33.33
2019-01-25T19:34:22.026Z,32.17
2019-01-25T19:36:49.105Z,33.73
2019-01-25T19:39:16.207Z,33.37
2019-01-25T19:41:43.333Z,32.83
2019-01-25T19:44:10.425Z,31.53
2019-01-25T19:46:37.792Z,31.60
2019-01-25T19:49:05.151Z,32.27
2019-01-25T19:51:32.226Z,30.37
2019-01-25T19:53:59.638Z,29.73
2019-01-25T19:56:26.813Z,30.37
2019-01-25T19:58:53.850Z,27.77
2019-01-25T20:01:20.958Z,28.90
2019-01-25T20:03:47.999Z,29.13
2019-01-25T20:06:15.234Z,27.33
2019-01-25T20:08:43.298Z,27.97
2019-01-25T20:11:10.530Z,28.47
2019-01-25T20:13:37.592Z,25.77
2019-01-25T20:16:04.860Z,29.23
2019-01-25T20:18:31.953Z,28.43
2019-01-25T20:20:59.255Z,29.10
2019-01-25T20:23:26.350Z,28.07
2019-01-25T20:25:53.471Z,30.67
2019-01-25T20:28:20.645Z,30.20
2019-01-25T20:30:49.732Z,29.27
2019-01-25T20:33:16.844Z,27.00
2019-01-25T20:35:44.003Z,27.83
2019-01-25T20:38:11.076Z,30.83
2019-01-25T20:40:38.557Z,28.57
2019-01-25T20:43:05.938Z,30.47
2019-01-25T20:45:34.978Z,28.40
2019-01-25T20:48:02.769Z,29.30
2019-01-25T20:50:31.230Z,29.50
2019-01-25T20:52:58.625Z,30.93
2019-01-25T20:55:26.132Z,29.30
2019-01-25T20:57:53.996Z,29.60
2019-01-25T21:00:23.548Z,29.70
2019-01-25T21:02:50.786Z,31.47
2019-01-25T21:05:18.008Z,31.27
2019-01-25T21:07:51.064Z,33.97
2019-01-25T21:10:19.354Z,31.87
2019-01-25T21:12:47.831Z,30.33
2019-01-25T21:15:16.446Z,31.20
2019-01-25T21:17:43.663Z,31.13
2019-01-25T21:20:16.992Z,34.83
2019-01-25T21:22:48.095Z,33.10
2019-01-25T21:25:15.554Z,31.40
2019-01-25T21:27:42.845Z,31.77
2019-01-25T21:30:13.545Z,35.33
2019-01-25T21:32:40.954Z,33.47
2019-01-25T21:35:08.786Z,33.13
2019-01-25T21:37:37.439Z,33.07
2019-01-25T21:40:08.604Z,34.83
2019-01-25T21:42:35.537Z,34.50
2019-01-25T21:45:03.358Z,36.17
2019-01-25T21:47:30.832Z,36.53
2019-01-25T21:49:57.989Z,35.47
2019-01-25T21:52:25.005Z,35.03
2019-01-25T21:54:52.123Z,37.00
2019-01-25T21:57:19.244Z,36.00
2019-01-25T21:59:46.313Z,34.67
2019-01-25T22:02:13.509Z,33.17
2019-01-25T22:04:40.562Z,37.23
2019-01-25T22:07:07.601Z,37.80
2019-01-25T22:09:34.683Z,38.20
2019-01-25T22:12:02.142Z,36.57
2019-01-25T22:14:29.197Z,38.13
2019-01-25T22:16:56.336Z,34.80
2019-01-25T22:19:23.484Z,37.87
2019-01-25T22:21:50.632Z,37.93
2019-01-25T22:24:17.691Z,35.17
2019-01-25T22:26:44.761Z,39.97
2019-01-25T22:29:13.100Z,36.30
2019-01-25T22:31:40.214Z,40.67
2019-01-25T22:34:07.303Z,40.40
2019-01-25T22:36:34.423Z,38.13
2019-01-25T22:39:01.453Z,41.27
2019-01-25T22:41:28.539Z,38.87
2019-01-25T22:43:55.608Z,40.27
2019-01-25T22:46:22.666Z,41.53
2019-01-25T22:48:49.776Z,40.20
2019-01-25T22:51:16.860Z,42.43
2019-01-25T22:53:43.897Z,41.53
2019-01-25T22:56:48.696Z,41.37
2019-01-25T22:59:15.773Z,42.80
2019-01-25T23:01:43.424Z,43.83
2019-01-25T23:04:52.166Z,46.67
2019-01-25T23:07:25.471Z,43.70
2019-01-25T23:10:01.152Z,46.20
2019-01-25T23:12:28.248Z,46.60
2019-01-25T23:14:55.267Z,44.87
2019-01-25T23:17:22.395Z,46.73
2019-01-25T23:20:50.645Z,49.50
2019-01-25T23:23:17.721Z,46.93
2019-01-25T23:25:44.791Z,50.90
2019-01-25T23:28:11.872Z,50.73
2019-01-25T23:30:38.957Z,51.03
2019-01-25T23:33:06.021Z,50.53
2019-01-25T23:35:33.310Z,53.90
2019-01-25T23:38:00.817Z,52.70
2019-01-25T23:40:27.911Z,56.00
2019-01-25T23:42:55.041Z,56.17
2019-01-25T23:45:22.100Z,52.63
2019-01-25T23:47:49.147Z,55.27
2019-01-25T23:50:16.333Z,56.10
2019-01-25T23:52:43.485Z,58.57
2019-01-25T23:55:10.545Z,57.03
2019-01-25T23:57:39.004Z,56.17
